Time;durP1;ratioP1;P1;durP2;ratioP2;P2;SDS_P1;SDS_P2;PMS_P1;PMS_P2;Temp;Humidity;BMP_temperature;BMP_pressure;BME280_temperature;BME280_humidity;BME280_pressure;Samples;Min_cycle;Max_cycle;Signal;HPM_P1;HPM_P2
2022/11/11 00:01:12;;;;;;;6.10;3.87;;;10.20;99.90;;;;;;5057376;28;20442;-87
2022/11/11 00:03:39;;;;;;;7.30;5.73;;;10.00;1.00;;;;;;5056857;28;20440;-87
2022/11/11 00:06:10;;;;;;;6.27;3.53;;;9.60;99.90;;;;;;5056761;28;20446;-86
2022/11/11 00:08:36;;;;;;;6.20;4.00;;;9.90;1.00;;;;;;5057624;28;20474;-87
2022/11/11 00:11:07;;;;;;;11.60;5.23;;;9.90;79.30;;;;;;5056324;28;20445;-86
2022/11/11 00:13:34;;;;;;;6.47;4.10;;;9.90;63.60;;;;;;5056915;28;20516;-86
2022/11/11 00:16:05;;;;;;;12.27;4.37;;;9.80;99.90;;;;;;5057413;28;20449;-86
2022/11/11 00:26:47;;;;;;;8.97;4.67;;;9.70;1.00;;;;;;5056333;28;20521;-86
2022/11/11 00:29:13;;;;;;;9.07;4.30;;;9.70;1.00;;;;;;5056374;28;20424;-86
2022/11/11 00:34:24;;;;;;;11.57;6.77;;;9.70;91.40;;;;;;5055430;28;20430;-85
2022/11/11 00:36:55;;;;;;;13.00;6.03;;;9.50;1.00;;;;;;5056771;28;20520;-86
2022/11/11 00:39:23;;;;;;;10.80;4.80;;;;;;;;;;5056925;28;20488;-86
2022/11/11 00:41:51;;;;;;;10.30;5.33;;;9.60;18.40;;;;;;5055901;28;20442;-86
2022/11/11 00:44:18;;;;;;;5.20;4.10;;;9.70;99.90;;;;;;5056863;28;20445;-86
2022/11/11 00:52:13;;;;;;;6.67;4.70;;;9.50;16.50;;;;;;5056572;28;20516;-86
2022/11/11 00:54:40;;;;;;;8.90;4.00;;;9.40;99.90;;;;;;5056717;28;20519;-87
2022/11/11 00:57:08;;;;;;;10.00;4.80;;;9.40;99.90;;;;;;5056411;28;20853;-86
2022/11/11 00:59:35;;;;;;;11.20;5.00;;;9.40;99.90;;;;;;5056085;28;20829;-86
2022/11/11 01:02:02;;;;;;;8.07;4.60;;;9.40;99.90;;;;;;5056195;28;20450;-86
2022/11/11 01:04:29;;;;;;;11.90;5.10;;;9.40;99.90;;;;;;5056354;28;20953;-86
2022/11/11 01:06:56;;;;;;;6.37;3.83;;;9.40;99.90;;;;;;5060070;28;20477;-87
2022/11/11 01:09:22;;;;;;;8.67;5.30;;;9.40;99.90;;;;;;5067603;28;20472;-86
2022/11/11 01:11:49;;;;;;;8.17;4.93;;;9.40;99.90;;;;;;5064031;28;20477;-86
2022/11/11 01:14:18;;;;;;;5.17;4.33;;;9.00;99.90;;;;;;5060753;28;20500;-86
2022/11/11 01:16:44;;;;;;;7.23;6.30;;;9.40;99.90;;;;;;5058341;28;20569;-86
2022/11/11 01:19:11;;;;;;;8.67;5.40;;;9.30;99.90;;;;;;5056559;28;20524;-86
2022/11/11 01:21:38;;;;;;;5.07;4.47;;;;;;;;;;5056282;28;20552;-87
2022/11/11 01:24:06;;;;;;;11.90;5.50;;;9.60;99.90;;;;;;5057575;28;20477;-87
2022/11/11 01:26:32;;;;;;;6.43;3.83;;;9.10;99.90;;;;;;5056824;28;20492;-86
2022/11/11 01:28:59;;;;;;;7.60;3.60;;;9.20;99.90;;;;;;5056363;28;20484;-86
2022/11/11 01:31:29;;;;;;;10.43;5.03;;;9.40;99.90;;;;;;5057260;28;20456;-86
2022/11/11 01:33:55;;;;;;;4.97;4.30;;;9.50;99.90;;;;;;5057350;28;20478;-86
2022/11/11 01:36:24;;;;;;;11.23;5.30;;;9.40;99.90;;;;;;5057538;28;20470;-86
2022/11/11 01:39:06;;;;;;;6.43;5.37;;;9.40;99.90;;;;;;5056903;28;20453;-87
2022/11/11 01:41:37;;;;;;;11.60;6.00;;;9.40;99.90;;;;;;5057375;28;20789;-87
2022/11/11 01:44:19;;;;;;;9.40;4.90;;;9.40;99.90;;;;;;5057051;28;20500;-87
2022/11/11 01:46:52;;;;;;;4.83;3.70;;;9.20;99.90;;;;;;5056630;28;21050;-87
2022/11/11 01:49:28;;;;;;;6.07;3.87;;;9.50;99.90;;;;;;5056480;28;20440;-86
2022/11/11 01:52:06;;;;;;;7.30;4.47;;;9.40;99.90;;;;;;5061297;28;20907;-87
2022/11/11 01:54:36;;;;;;;6.13;3.90;;;9.60;99.90;;;;;;5060849;28;20847;-87
2022/11/11 01:57:14;;;;;;;5.27;4.40;;;9.50;82.60;;;;;;5062615;28;20469;-87
2022/11/11 01:59:44;;;;;;;6.20;4.40;;;9.50;99.90;;;;;;5064690;28;20512;-87
2022/11/11 02:02:23;;;;;;;4.90;4.17;;;9.60;99.90;;;;;;5066868;28;20509;-86
2022/11/11 02:07:49;;;;;;;8.53;4.60;;;9.50;99.40;;;;;;5081600;28;20445;-87
2022/11/11 02:10:30;;;;;;;4.43;4.03;;;9.20;99.90;;;;;;5081047;28;20425;-87
2022/11/11 02:15:49;;;;;;;11.93;4.80;;;9.60;99.90;;;;;;5080915;28;20444;-87
2022/11/11 02:18:36;;;;;;;4.83;4.27;;;9.30;99.90;;;;;;5080625;28;20453;-87
2022/11/11 02:21:08;;;;;;;10.30;4.47;;;9.20;99.90;;;;;;5080369;28;20452;-87
2022/11/11 02:23:46;;;;;;;8.77;3.67;;;9.30;99.90;;;;;;5080928;28;20426;-87
2022/11/11 02:26:21;;;;;;;6.17;4.00;;;9.30;99.90;;;;;;5079711;28;20429;-87
2022/11/11 02:29:03;;;;;;;7.30;4.80;;;9.40;99.90;;;;;;5077631;28;20923;-87
2022/11/11 02:31:36;;;;;;;9.97;4.17;;;9.30;99.90;;;;;;5071439;28;20521;-87
2022/11/11 02:34:08;;;;;;;7.27;4.33;;;9.40;99.90;;;;;;5070468;28;20802;-86
2022/11/11 02:36:42;;;;;;;7.63;5.10;;;9.40;99.90;;;;;;5068785;28;20441;-86
2022/11/11 02:39:14;;;;;;;8.23;5.20;;;9.40;99.90;;;;;;5061266;28;20458;-87
2022/11/11 02:41:56;;;;;;;8.73;5.60;;;9.10;99.90;;;;;;5058588;28;20430;-87
2022/11/11 02:44:23;;;;;;;7.50;4.17;;;9.50;99.90;;;;;;5058796;28;20440;-87
2022/11/11 02:46:55;;;;;;;6.30;4.43;;;9.10;99.90;;;;;;5062464;28;20466;-87
2022/11/11 02:49:26;;;;;;;5.60;4.30;;;9.40;99.90;;;;;;5059299;28;20438;-87
2022/11/11 02:51:57;;;;;;;11.43;4.80;;;9.20;99.90;;;;;;5058196;28;20484;-87
2022/11/11 02:54:34;;;;;;;5.03;3.70;;;9.40;99.90;;;;;;5060206;28;20934;-88
2022/11/11 02:57:12;;;;;;;11.13;4.10;;;9.40;99.90;;;;;;5058272;28;20465;-88
2022/11/11 02:59:45;;;;;;;7.53;4.10;;;9.70;99.90;;;;;;5058747;28;20438;-87
2022/11/11 03:02:18;;;;;;;5.70;4.27;;;9.30;99.90;;;;;;5057682;28;20807;-88
2022/11/11 03:04:49;;;;;;;7.27;4.27;;;9.30;99.90;;;;;;5058033;28;20877;-87
2022/11/11 03:07:23;;;;;;;15.77;5.57;;;9.40;99.90;;;;;;5058368;28;20476;-88
2022/11/11 03:09:51;;;;;;;5.50;4.80;;;9.40;99.90;;;;;;5058058;28;20498;-87
2022/11/11 03:12:19;;;;;;;10.20;4.30;;;8.90;99.90;;;;;;5057691;28;20542;-87
2022/11/11 03:14:46;;;;;;;8.70;4.60;;;9.10;99.90;;;;;;5058268;28;20485;-87
2022/11/11 03:21:03;;;;;;;7.47;4.37;;;9.30;99.90;;;;;;5059014;28;20404;-88
2022/11/11 03:23:04;;;;;;;9.90;5.33;;;9.40;99.90;;;;;;5057602;28;20445;-88
2022/11/11 03:25:40;;;;;;;11.77;4.20;;;9.20;99.90;;;;;;5058614;28;20441;-88
2022/11/11 03:28:16;;;;;;;4.93;3.60;;;9.10;99.90;;;;;;5057579;28;20527;-87
2022/11/11 03:30:48;;;;;;;9.90;5.07;;;9.20;99.90;;;;;;5056755;28;20421;-87
2022/11/11 03:33:23;;;;;;;8.57;4.60;;;9.30;99.90;;;;;;5056813;28;20465;-86
2022/11/11 03:35:55;;;;;;;8.30;4.63;;;9.30;99.90;;;;;;5056843;28;20400;-87
2022/11/11 03:45:35;;;;;;;6.37;4.93;;;9.20;99.90;;;;;;5038487;28;20418;-85
2022/11/11 03:48:31;;;;;;;5.13;3.90;;;9.20;99.90;;;;;;5058652;22;20493;-84
2022/11/11 03:54:36;;;;;;;9.50;5.20;;;9.20;99.90;;;;;;5057913;28;20819;-85
2022/11/11 04:10:21;;;;;;;6.77;4.07;;;9.20;99.90;;;;;;5054147;28;20459;-83
2022/11/11 04:22:17;;;;;;;;;;;;;;;;;;;;;
2022/11/11 04:49:09;;;;;;;8.57;4.57;;;9.00;99.90;;;;;;5014876;28;20469;-84
2022/11/11 04:54:26;;;;;;;7.97;4.83;;;;;;;;;;5061823;28;20456;-86
2022/11/11 04:57:25;;;;;;;7.97;5.43;;;9.10;99.90;;;;;;5059558;28;20435;-85
2022/11/11 04:59:55;;;;;;;6.10;4.27;;;;;;;;;;5062138;28;20964;-85
2022/11/11 05:05:15;;;;;;;7.00;4.67;;;;;;;;;;5062660;28;20485;-85
2022/11/11 05:11:04;;;;;;;;;;;;;;;;;;;;;
2022/11/11 05:25:29;;;;;;;7.30;4.40;;;;;;;;;;5060362;28;20832;-87
2022/11/11 05:28:14;;;;;;;5.90;4.13;;;;;;;;;;5063495;28;20576;-87
2022/11/11 05:57:01;;;;;;;16.97;7.03;;;;;;;;;;1001404;22;21009;-87
2022/11/11 06:06:40;;;;;;;5.80;4.20;;;9.30;1.00;;;;;;5040403;28;20425;-87
2022/11/11 06:09:18;;;;;;;6.23;4.70;;;;;;;;;;5044621;28;20462;-88
2022/11/11 06:11:51;;;;;;;8.73;4.87;;;;;;;;;;5048390;28;20833;-87
2022/11/11 06:14:21;;;;;;;6.83;4.40;;;;;;;;;;5047779;28;20561;-87
2022/11/11 06:16:55;;;;;;;8.43;5.13;;;;;;;;;;5045530;28;20446;-87
2022/11/11 06:19:27;;;;;;;5.20;4.70;;;;;;;;;;5054731;28;20498;-87
2022/11/11 06:21:57;;;;;;;8.73;4.63;;;;;;;;;;5046484;28;20502;-86
2022/11/11 06:24:28;;;;;;;7.73;5.00;;;;;;;;;;5043963;28;20429;-87
2022/11/11 06:27:05;;;;;;;9.23;4.57;;;;;;;;;;5045621;28;20535;-87
2022/11/11 06:36:24;;;;;;;6.13;4.33;;;9.20;1.00;;;;;;4972473;28;20444;-88
2022/11/11 06:42:26;;;;;;;12.67;6.50;;;;;;;;;;4962916;29;20453;-87
2022/11/11 07:04:24;;;;;;;12.40;5.37;;;9.30;1.00;;;;;;5043228;28;20469;-88
2022/11/11 07:07:32;;;;;;;9.57;4.80;;;9.30;1.00;;;;;;5042424;28;20479;-88
2022/11/11 07:10:11;;;;;;;9.70;4.10;;;;;;;;;;5047693;28;20425;-86
2022/11/11 07:16:18;;;;;;;9.43;4.50;;;9.30;1.00;;;;;;5013451;28;20455;-87
2022/11/11 07:18:54;;;;;;;12.70;5.47;;;;;;;;;;5025867;28;20477;-87
2022/11/11 07:21:27;;;;;;;12.43;5.60;;;;;;;;;;5040564;28;20441;-87
2022/11/11 07:26:45;;;;;;;8.50;5.90;;;;;;;;;;5035038;28;20535;-86
2022/11/11 07:29:35;;;;;;;;;;;;;;;;;;;;;
2022/11/11 07:32:05;;;;;;;7.70;5.93;;;;;;;;;;5050032;28;20870;-86
2022/11/11 07:37:29;;;;;;;13.20;6.40;;;;;;;;;;5042062;28;20501;-86
2022/11/11 07:40:03;;;;;;;12.33;6.83;;;;;;;;;;5044158;28;20458;-87
2022/11/11 07:45:25;;;;;;;10.03;6.37;;;;;;;;;;5034949;28;20447;-86
2022/11/11 07:50:53;;;;;;;8.80;5.47;;;9.20;1.00;;;;;;5039275;28;20454;-85
2022/11/11 07:53:24;;;;;;;7.37;5.47;;;;;;;;;;5037615;28;20479;-87
2022/11/11 07:58:44;;;;;;;10.70;5.73;;;;;;;;;;4987458;28;20461;-84
2022/11/11 08:01:28;;;;;;;;;;;;;;;;;;;;;
2022/11/11 08:10:57;;;;;;;7.13;4.53;;;;;;;;;;4890275;29;20486;-86
2022/11/11 08:13:40;;;;;;;9.83;6.00;;;;;;;;;;4962979;28;20540;-87
2022/11/11 08:16:11;;;;;;;10.83;5.57;;;;;;;;;;5040178;28;20496;-86
2022/11/11 08:18:41;;;;;;;5.40;4.80;;;;;;;;;;5040190;28;20438;-86
2022/11/11 08:21:13;;;;;;;6.30;5.07;;;;;;;;;;5039640;28;20799;-87
2022/11/11 08:23:40;;;;;;;8.80;5.10;;;;;;;;;;5040418;28;20479;-87
2022/11/11 08:26:15;;;;;;;12.53;6.30;;;;;;;;;;5037308;28;20473;-86
2022/11/11 08:29:12;;;;;;;9.40;4.70;;;;;;;;;;5039741;28;20497;-86
2022/11/11 08:31:56;;;;;;;;;;;;;;;;;;;;;
2022/11/11 08:34:32;;;;;;;11.20;5.20;;;;;;;;;;5039899;28;20482;-86
2022/11/11 08:37:24;;;;;;;5.77;4.47;;;;;;;;;;5039853;28;20478;-86
2022/11/11 08:39:54;;;;;;;9.83;5.27;;;;;;;;;;5040730;28;20532;-86
2022/11/11 08:42:22;;;;;;;9.83;5.67;;;;;;;;;;5035621;28;20529;-86
2022/11/11 08:44:51;;;;;;;10.20;5.37;;;;;;;;;;5041274;28;20443;-86
2022/11/11 08:47:26;;;;;;;5.73;4.80;;;;;;;;;;5052660;28;20454;-85
2022/11/11 08:49:53;;;;;;;11.47;4.30;;;;;;;;;;5036930;28;20408;-87
2022/11/11 08:52:23;;;;;;;10.63;4.30;;;;;;;;;;5037943;28;20457;-86
2022/11/11 08:57:41;;;;;;;7.80;4.33;;;;;;;;;;5038528;28;20543;-86
2022/11/11 09:00:09;;;;;;;8.33;4.00;;;;;;;;;;5039659;28;20444;-85
2022/11/11 09:02:45;;;;;;;4.70;4.23;;;;;;;;;;5042282;28;20446;-87
2022/11/11 09:05:18;;;;;;;4.60;3.70;;;;;;;;;;5043071;28;20476;-87
2022/11/11 09:07:45;;;;;;;6.90;3.90;;;;;;;;;;5042564;28;20792;-87
2022/11/11 09:10:16;;;;;;;6.60;4.73;;;;;;;;;;5043292;28;20962;-87
2022/11/11 09:12:46;;;;;;;10.43;4.30;;;;;;;;;;5042677;28;20466;-87
2022/11/11 09:15:21;;;;;;;9.60;3.47;;;;;;;;;;5042313;28;20452;-87
2022/11/11 09:17:57;;;;;;;4.17;3.10;;;;;;;;;;5043456;28;20474;-86
2022/11/11 09:23:15;;;;;;;12.90;6.40;;;;;;;;;;5036640;28;20451;-87
2022/11/11 09:25:59;;;;;;;8.27;4.53;;;;;;;;;;5043721;28;20447;-87
2022/11/11 09:28:38;;;;;;;6.27;3.63;;;;;;;;;;5046887;28;20466;-86
2022/11/11 09:31:08;;;;;;;7.47;3.93;;;;;;;;;;5042607;28;20438;-85
2022/11/11 09:33:44;;;;;;;5.00;3.70;;;;;;;;;;5043080;28;20482;-86
2022/11/11 09:36:17;;;;;;;8.43;6.10;;;;;;;;;;5044382;28;20421;-86
2022/11/11 09:38:47;;;;;;;8.00;4.03;;;;;;;;;;5041093;28;20470;-85
2022/11/11 09:41:40;;;;;;;5.80;4.13;;;11.60;99.90;;;;;;5041277;28;20745;-85
2022/11/11 09:44:36;;;;;;;4.47;3.20;;;11.70;99.90;;;;;;5042536;28;20455;-85
2022/11/11 09:47:08;;;;;;;9.00;5.10;;;11.70;99.90;;;;;;5068718;22;20486;-85
2022/11/11 09:50:02;;;;;;;7.43;5.17;;;11.70;99.90;;;;;;5066346;28;20796;-86
2022/11/11 09:52:34;;;;;;;9.13;4.73;;;11.80;99.90;;;;;;5052678;28;20522;-87
2022/11/11 09:55:14;;;;;;;8.87;3.90;;;11.80;99.90;;;;;;5067630;28;20501;-87
2022/11/11 09:57:45;;;;;;;6.87;3.07;;;11.70;99.90;;;;;;5071999;28;20480;-86
2022/11/11 10:00:18;;;;;;;7.43;3.80;;;11.70;99.90;;;;;;5067428;28;20446;-86
2022/11/11 10:02:53;;;;;;;3.93;3.00;;;11.70;99.90;;;;;;5070327;28;20454;-86
2022/11/11 10:05:26;;;;;;;4.20;2.70;;;11.70;99.90;;;;;;5072541;28;20836;-86
2022/11/11 10:07:56;;;;;;;6.70;3.53;;;11.80;99.90;;;;;;5069062;28;20456;-86
2022/11/11 10:10:32;;;;;;;8.07;3.43;;;11.60;1.00;;;;;;5061207;28;20401;-86
2022/11/11 10:13:00;;;;;;;5.93;4.23;;;11.90;1.00;;;;;;5062866;28;20979;-86
2022/11/11 10:15:34;;;;;;;6.73;3.40;;;12.00;99.90;;;;;;5060659;28;20481;-87
2022/11/11 10:18:25;;;;;;;6.80;4.23;;;12.00;99.90;;;;;;5060235;28;20497;-87
2022/11/11 10:20:56;;;;;;;5.03;3.37;;;12.00;99.90;;;;;;5059666;28;20513;-87
2022/11/11 10:23:29;;;;;;;5.73;3.30;;;12.00;99.90;;;;;;5059670;28;20513;-86
2022/11/11 10:26:00;;;;;;;6.03;3.70;;;12.00;99.90;;;;;;5060369;28;20787;-87
2022/11/11 10:28:49;;;;;;;3.73;3.30;;;12.10;99.90;;;;;;5061345;28;20501;-87
2022/11/11 10:31:19;;;;;;;6.93;3.23;;;12.20;99.90;;;;;;5062555;28;20906;-87
2022/11/11 10:33:51;;;;;;;4.80;3.40;;;12.20;99.90;;;;;;5059528;28;20456;-86
2022/11/11 10:36:21;;;;;;;14.77;8.37;;;12.20;99.90;;;;;;5061093;28;20517;-86
2022/11/11 10:38:53;;;;;;;17.43;4.80;;;12.50;1.00;;;;;;5060159;28;20501;-86
2022/11/11 10:41:45;;;;;;;7.17;3.90;;;12.20;99.90;;;;;;5061189;28;20477;-86
2022/11/11 10:44:23;;;;;;;6.20;4.13;;;12.30;99.90;;;;;;5062087;28;20507;-84
2022/11/11 10:47:19;;;;;;;7.00;4.97;;;12.40;99.90;;;;;;5065219;28;20462;-86
2022/11/11 10:49:57;;;;;;;8.20;4.70;;;12.40;99.90;;;;;;5063423;28;20453;-86
2022/11/11 10:52:43;;;;;;;9.13;3.73;;;12.50;99.90;;;;;;5063577;28;20461;-86
2022/11/11 10:55:15;;;;;;;4.57;3.30;;;12.50;99.90;;;;;;5067397;28;21011;-85
2022/11/11 10:57:49;;;;;;;5.50;3.70;;;12.70;99.90;;;;;;5069861;28;20536;-83
2022/11/11 11:00:22;;;;;;;9.23;4.33;;;;;;;;;;5066216;28;20460;-85
2022/11/11 11:02:58;;;;;;;3.60;2.83;;;12.50;99.90;;;;;;5066516;28;20458;-85
2022/11/11 11:05:28;;;;;;;7.10;3.97;;;12.70;1.00;;;;;;5067252;28;20418;-86
2022/11/11 11:08:02;;;;;;;4.73;3.50;;;12.60;99.90;;;;;;5071573;28;20512;-86
2022/11/11 11:10:35;;;;;;;13.83;6.97;;;12.50;99.90;;;;;;5069094;28;20439;-87
2022/11/11 11:13:06;;;;;;;11.80;5.73;;;12.80;1.00;;;;;;5074862;28;20464;-86
2022/11/11 11:15:38;;;;;;;5.30;4.10;;;12.80;99.90;;;;;;5073737;28;20501;-86
2022/11/11 11:18:09;;;;;;;8.47;3.30;;;13.10;1.00;;;;;;5075909;28;20493;-86
2022/11/11 11:20:36;;;;;;;8.70;3.40;;;;;;;;;;5069754;28;20430;-86
2022/11/11 11:23:05;;;;;;;10.40;4.07;;;12.90;99.90;;;;;;5067852;28;20454;-86
2022/11/11 11:25:34;;;;;;;7.53;3.40;;;12.50;1.00;;;;;;5064845;28;20845;-87
2022/11/11 11:28:12;;;;;;;8.07;3.63;;;13.10;1.00;;;;;;5066615;28;20527;-87
2022/11/11 11:30:39;;;;;;;9.57;3.20;;;12.80;99.90;;;;;;5068837;28;20434;-87
2022/11/11 11:33:08;;;;;;;6.07;2.57;;;12.80;99.90;;;;;;5063527;28;20450;-87
2022/11/11 11:35:38;;;;;;;8.93;3.53;;;12.70;99.90;;;;;;5068769;28;20484;-86
2022/11/11 11:38:09;;;;;;;6.13;3.00;;;12.70;99.90;;;;;;5063480;28;20477;-86
2022/11/11 11:40:50;;;;;;;8.53;3.03;;;12.70;99.90;;;;;;5064876;28;20490;-87
2022/11/11 11:43:32;;;;;;;3.60;3.30;;;12.80;1.00;;;;;;5072503;28;20457;-86
2022/11/11 11:46:00;;;;;;;6.37;4.00;;;12.80;99.90;;;;;;5075614;28;20422;-86
2022/11/11 11:48:43;;;;;;;5.53;4.13;;;12.80;99.90;;;;;;5076370;28;20488;-86
2022/11/11 11:51:21;;;;;;;7.63;4.50;;;12.80;1.00;;;;;;5078810;28;20401;-86
2022/11/11 11:54:02;;;;;;;9.80;3.70;;;12.80;99.90;;;;;;5079496;28;20407;-85
2022/11/11 11:56:37;;;;;;;5.23;3.00;;;12.70;99.90;;;;;;5079412;28;20428;-86
2022/11/11 11:59:11;;;;;;;7.90;4.07;;;12.80;1.00;;;;;;5063351;28;20473;-87
2022/11/11 12:01:53;;;;;;;4.90;3.93;;;12.80;99.90;;;;;;5064181;28;20502;-86
2022/11/11 12:04:56;;;;;;;9.70;5.63;;;12.70;99.90;;;;;;5059803;28;20405;-87
2022/11/11 12:07:42;;;;;;;9.30;3.70;;;12.60;99.90;;;;;;5060581;28;20462;-86
2022/11/11 12:10:23;;;;;;;6.77;3.90;;;13.10;1.00;;;;;;5060078;28;20466;-87
2022/11/11 12:12:57;;;;;;;9.80;3.60;;;12.80;1.00;;;;;;5061201;28;20484;-86
2022/11/11 12:15:33;;;;;;;6.50;3.03;;;12.70;99.90;;;;;;5060719;28;20556;-87
2022/11/11 12:18:18;;;;;;;5.70;4.53;;;12.80;99.90;;;;;;5060096;28;20887;-86
2022/11/11 12:20:50;;;;;;;7.10;4.20;;;12.70;99.90;;;;;;5059040;28;20438;-86
2022/11/11 12:23:38;;;;;;;8.47;3.57;;;12.80;99.90;;;;;;5057105;28;20931;-86
2022/11/11 12:26:12;;;;;;;7.93;3.90;;;12.90;99.90;;;;;;5057985;28;20423;-86
2022/11/11 12:28:51;;;;;;;5.13;3.30;;;12.80;99.90;;;;;;5057761;28;20535;-86
2022/11/11 12:31:30;;;;;;;8.50;3.47;;;12.80;99.90;;;;;;5058529;28;20426;-87
2022/11/11 12:34:18;;;;;;;3.97;3.33;;;12.90;99.90;;;;;;5058181;28;20505;-87
2022/11/11 12:36:54;;;;;;;8.90;5.20;;;12.80;99.90;;;;;;5058720;28;20436;-86
2022/11/11 12:39:35;;;;;;;8.07;3.90;;;12.90;99.90;;;;;;5074769;28;20502;-86
2022/11/11 12:42:15;;;;;;;4.67;2.73;;;12.90;91.90;;;;;;5077332;28;20454;-86
2022/11/11 12:44:52;;;;;;;4.13;3.10;;;12.80;91.30;;;;;;5077003;28;20453;-87
2022/11/11 12:47:29;;;;;;;4.10;3.80;;;12.90;82.20;;;;;;5078508;28;20481;-85
2022/11/11 12:50:07;;;;;;;5.37;3.10;;;12.90;99.90;;;;;;5077978;28;20409;-85
2022/11/11 12:52:42;;;;;;;6.53;2.97;;;12.90;94.10;;;;;;5075916;28;20437;-86
2022/11/11 12:55:17;;;;;;;4.53;3.07;;;12.90;99.90;;;;;;5063296;28;20500;-86
2022/11/11 12:58:03;;;;;;;6.53;2.90;;;12.90;96.90;;;;;;5059601;28;20559;-87
2022/11/11 13:00:31;;;;;;;7.90;3.20;;;12.90;99.90;;;;;;5058208;28;20438;-86
2022/11/11 13:03:22;;;;;;;8.03;4.00;;;13.00;99.90;;;;;;5057132;28;20996;-85
2022/11/11 13:05:57;;;;;;;5.10;3.07;;;12.80;99.90;;;;;;5067171;28;20422;-85
2022/11/11 13:08:49;;;;;;;3.70;2.57;;;12.90;81.30;;;;;;5068218;28;20451;-85
2022/11/11 13:11:23;;;;;;;5.30;2.60;;;12.90;99.90;;;;;;5066567;28;20513;-85
2022/11/11 13:14:07;;;;;;;4.20;3.30;;;13.00;91.90;;;;;;5060358;28;20458;-87
2022/11/11 13:16:33;;;;;;;6.73;3.60;;;13.00;99.90;;;;;;5060284;28;20502;-86
2022/11/11 13:19:04;;;;;;;3.37;3.07;;;13.00;59.20;;;;;;5057143;28;20473;-86
2022/11/11 13:21:40;;;;;;;6.23;5.00;;;13.10;70.70;;;;;;5057544;28;21005;-86
2022/11/11 13:24:14;;;;;;;6.27;4.77;;;13.00;93.80;;;;;;5056385;28;20468;-87
2022/11/11 13:26:47;;;;;;;5.23;4.10;;;13.40;99.90;;;;;;5056636;28;20430;-86
2022/11/11 13:29:45;;;;;;;9.03;4.23;;;13.10;70.80;;;;;;5056686;28;20463;-86
2022/11/11 13:32:16;;;;;;;14.03;4.77;;;13.10;1.00;;;;;;5057807;28;20496;-86
2022/11/11 13:34:44;;;;;;;3.97;3.57;;;12.70;1.00;;;;;;5057255;28;20473;-86
2022/11/11 13:37:22;;;;;;;7.30;3.57;;;13.10;99.90;;;;;;5058220;28;20504;-85
2022/11/11 13:39:51;;;;;;;4.50;3.30;;;13.00;99.90;;;;;;5061445;28;20433;-87
2022/11/11 13:42:23;;;;;;;9.37;4.80;;;13.00;72.90;;;;;;5065849;28;20841;-86
2022/11/11 13:44:53;;;;;;;9.77;4.17;;;12.80;94.00;;;;;;5058986;28;20421;-87
2022/11/11 13:47:24;;;;;;;3.43;3.03;;;12.80;99.90;;;;;;5061382;28;21070;-86
2022/11/11 13:49:54;;;;;;;6.50;3.40;;;12.90;99.90;;;;;;5061224;28;20521;-86
2022/11/11 13:52:25;;;;;;;8.73;3.60;;;12.80;99.90;;;;;;5061195;28;20487;-86
2022/11/11 13:54:58;;;;;;;7.60;3.23;;;12.70;99.90;;;;;;5070595;28;20469;-85
2022/11/11 13:57:28;;;;;;;6.70;3.83;;;12.90;99.90;;;;;;5080350;28;20496;-86
2022/11/11 14:00:00;;;;;;;5.23;3.97;;;12.90;99.90;;;;;;5080245;28;20489;-85
2022/11/11 14:02:30;;;;;;;5.23;3.53;;;12.80;99.90;;;;;;5080966;28;20418;-85
2022/11/11 14:05:21;;;;;;;5.73;3.17;;;12.80;99.90;;;;;;5081000;28;20452;-85
2022/11/11 14:07:52;;;;;;;10.40;5.10;;;12.80;99.90;;;;;;5081194;28;20480;-86
2022/11/11 14:10:53;;;;;;;9.60;4.17;;;12.80;99.90;;;;;;5077180;28;20437;-86
2022/11/11 14:13:41;;;;;;;6.27;3.93;;;12.70;99.90;;;;;;5068040;28;20475;-86
2022/11/11 14:16:50;;;;;;;9.70;4.37;;;12.60;99.90;;;;;;5064421;28;20528;-86
2022/11/11 14:19:33;;;;;;;6.60;4.77;;;12.60;99.90;;;;;;5059242;28;20454;-86
2022/11/11 14:22:01;;;;;;;5.00;4.03;;;12.70;1.00;;;;;;5059602;28;20450;-87
2022/11/11 14:24:36;;;;;;;4.20;3.27;;;12.50;99.90;;;;;;5061374;28;20445;-87
2022/11/11 14:27:15;;;;;;;7.50;4.33;;;12.20;1.00;;;;;;5062327;28;20434;-86
2022/11/11 14:29:50;;;;;;;8.57;3.70;;;12.50;99.90;;;;;;5061711;28;20456;-86
2022/11/11 14:32:37;;;;;;;10.30;4.40;;;12.50;99.90;;;;;;5062108;28;20497;-86
2022/11/11 14:35:26;;;;;;;3.87;3.03;;;12.50;99.90;;;;;;5061280;28;20499;-86
2022/11/11 14:38:07;;;;;;;13.60;4.30;;;12.50;99.90;;;;;;5078189;28;20498;-85
2022/11/11 14:40:34;;;;;;;5.93;3.80;;;12.50;99.90;;;;;;5079271;28;20458;-85
2022/11/11 14:43:34;;;;;;;9.27;8.33;;;12.50;99.90;;;;;;5080018;28;20445;-85
2022/11/11 14:46:06;;;;;;;6.30;5.70;;;12.40;99.90;;;;;;5079199;28;20477;-86
2022/11/11 14:48:52;;;;;;;6.37;4.10;;;12.40;99.90;;;;;;5079391;28;20478;-85
2022/11/11 14:51:47;;;;;;;7.33;4.77;;;12.30;99.90;;;;;;5079670;28;20462;-86
2022/11/11 14:54:53;;;;;;;5.10;4.60;;;12.20;1.00;;;;;;5075155;28;20449;-86
2022/11/11 14:57:24;;;;;;;9.87;4.40;;;12.20;99.90;;;;;;5051540;28;20565;-86
2022/11/11 14:59:52;;;;;;;8.87;4.23;;;12.20;99.90;;;;;;5070131;28;20491;-86
2022/11/11 15:02:27;;;;;;;10.90;4.70;;;12.10;99.90;;;;;;5067953;28;20485;-86
2022/11/11 15:04:58;;;;;;;8.27;4.90;;;12.10;99.90;;;;;;5061699;28;20501;-86
2022/11/11 15:07:39;;;;;;;7.73;3.83;;;12.10;99.90;;;;;;5060450;28;20466;-86
2022/11/11 15:10:30;;;;;;;3.33;3.00;;;12.10;99.90;;;;;;5059025;28;20782;-86
2022/11/11 15:13:33;;;;;;;7.70;3.70;;;12.10;99.90;;;;;;5058291;28;20516;-87
2022/11/11 15:16:10;;;;;;;9.77;5.60;;;12.00;99.90;;;;;;5058440;28;20560;-86
2022/11/11 15:19:05;;;;;;;8.50;5.40;;;12.00;99.90;;;;;;5057941;28;20973;-87
2022/11/11 15:21:35;;;;;;;7.60;4.07;;;11.80;1.00;;;;;;5059188;28;20465;-86
2022/11/11 15:24:20;;;;;;;15.00;4.47;;;11.90;99.90;;;;;;5059277;28;20917;-86
2022/11/11 15:26:56;;;;;;;5.77;4.43;;;12.60;99.90;;;;;;5059955;28;20500;-87
2022/11/11 15:29:51;;;;;;;6.97;4.60;;;11.80;99.90;;;;;;5051459;28;20491;-87
2022/11/11 15:32:29;;;;;;;7.43;5.00;;;11.80;99.90;;;;;;5059379;28;20857;-87
2022/11/11 15:35:09;;;;;;;8.77;5.10;;;11.80;99.90;;;;;;5059105;28;20468;-86
2022/11/11 15:37:36;;;;;;;9.60;5.93;;;11.70;99.90;;;;;;5059762;28;20465;-86
2022/11/11 15:40:07;;;;;;;6.90;5.07;;;11.70;99.90;;;;;;5058800;28;20452;-87
2022/11/11 15:42:38;;;;;;;12.43;5.20;;;11.70;99.90;;;;;;5060088;28;20440;-87
2022/11/11 15:45:20;;;;;;;7.30;4.40;;;11.70;99.90;;;;;;5060316;28;20775;-86
2022/11/11 15:47:49;;;;;;;5.53;4.80;;;11.90;1.00;;;;;;5061392;28;20568;-86
2022/11/11 15:50:18;;;;;;;8.20;4.73;;;11.60;99.90;;;;;;5059602;28;20901;-87
2022/11/11 15:52:45;;;;;;;12.10;6.50;;;11.50;99.90;;;;;;5063353;28;20611;-86
2022/11/11 15:55:22;;;;;;;12.13;5.27;;;11.50;99.90;;;;;;5059650;28;21025;-87
2022/11/11 15:57:49;;;;;;;5.87;4.83;;;;;;;;;;5067881;28;20469;-86
2022/11/11 16:00:31;;;;;;;5.40;4.43;;;11.20;1.00;;;;;;5073849;28;20445;-86
2022/11/11 16:02:59;;;;;;;8.43;4.70;;;11.50;99.90;;;;;;5063879;28;20458;-86
2022/11/11 16:05:27;;;;;;;6.60;4.00;;;11.40;1.00;;;;;;5060337;28;20422;-86
2022/11/11 16:07:56;;;;;;;10.00;4.67;;;11.40;1.00;;;;;;5058993;28;20915;-86
2022/11/11 16:10:30;;;;;;;10.10;4.87;;;11.40;1.00;;;;;;5060970;28;21030;-86
2022/11/11 16:13:00;;;;;;;5.43;4.47;;;11.40;1.00;;;;;;5059805;28;20457;-86
2022/11/11 16:15:33;;;;;;;9.63;4.70;;;11.60;52.60;;;;;;5070965;28;20489;-86
2022/11/11 16:18:03;;;;;;;6.40;4.17;;;11.30;1.00;;;;;;5073378;28;20451;-85
2022/11/11 16:20:36;;;;;;;7.97;4.70;;;11.00;52.60;;;;;;5069260;28;20452;-86
2022/11/11 16:23:06;;;;;;;7.27;4.73;;;11.30;1.00;;;;;;5060980;28;20504;-87
2022/11/11 16:25:35;;;;;;;8.53;4.20;;;11.30;1.00;;;;;;5062454;28;20460;-86
2022/11/11 16:28:04;;;;;;;6.23;4.23;;;11.40;99.90;;;;;;5075277;28;20462;-85
2022/11/11 16:30:34;;;;;;;6.30;5.57;;;11.30;99.90;;;;;;5075118;28;20416;-86
2022/11/11 16:33:01;;;;;;;13.60;6.10;;;11.20;1.00;;;;;;5076011;28;20430;-85
2022/11/11 16:35:32;;;;;;;4.57;3.80;;;11.50;99.90;;;;;;5056613;28;20551;-86
2022/11/11 16:38:00;;;;;;;7.50;4.70;;;;;;;;;;5073707;28;20437;-86
2022/11/11 16:40:42;;;;;;;9.30;5.13;;;11.30;99.90;;;;;;5062317;28;20225;-86
2022/11/11 16:43:17;;;;;;;15.83;6.50;;;11.20;1.00;;;;;;5059285;28;20497;-86
2022/11/11 16:45:48;;;;;;;9.53;5.73;;;11.20;99.90;;;;;;5059254;28;20429;-87
2022/11/11 16:48:44;;;;;;;11.87;4.97;;;11.10;1.00;;;;;;5058270;28;20485;-87
2022/11/11 16:51:15;;;;;;;13.80;8.20;;;11.00;1.00;;;;;;5062572;28;20476;-86
2022/11/11 16:53:47;;;;;;;11.17;6.20;;;11.00;1.00;;;;;;5062734;28;20512;-86
2022/11/11 16:56:21;;;;;;;15.00;6.67;;;11.00;99.90;;;;;;5060090;28;20489;-87
2022/11/11 16:58:59;;;;;;;6.40;5.73;;;10.90;1.00;;;;;;5059216;28;20465;-86
2022/11/11 17:01:26;;;;;;;11.20;6.07;;;10.90;1.00;;;;;;5058653;28;20771;-86
2022/11/11 17:03:54;;;;;;;14.37;9.23;;;10.80;72.90;;;;;;5058700;28;20488;-87
2022/11/11 17:06:45;;;;;;;13.20;6.70;;;10.90;1.00;;;;;;5062011;28;20420;-86
2022/11/11 17:09:28;;;;;;;12.97;7.17;;;10.80;11.80;;;;;;5061667;28;20438;-85
2022/11/11 17:11:56;;;;;;;9.90;6.67;;;10.80;99.90;;;;;;5063328;28;20483;-86
2022/11/11 17:14:24;;;;;;;12.60;7.60;;;10.70;99.90;;;;;;5064476;28;20442;-86